Flight Track Log - Related Links

Times and Time Zones

All times are in EDT time to prevent confusion due to time zone crossing. See the C-GRJR flight status page for this flight to view local times or setup timezone preferences in your user account.

Time Position Orientation Groundspeed Altitude Reporting Facility
EDT Latitude Longitude Course Direction KTS MPH feet Rate Location/Type
Thu 06:43:27 PM 37.3786 -79.2692 North 177 204 8,000  Level Washington Center
Thu 06:44:27 PM 37.4181 -79.2683 North 184 212 9,000 645 Climbing Washington Center
Thu 06:45:28 PM 37.4872 -79.2667 North 202 232 9,300 807 Climbing Washington Center
Thu 06:46:00 PM 37.8078 -79.1990 North  Level Estimated
Thu 06:46:26 PM 37.5456 -79.2667 360° North 223 257 10,600  Level Washington Center
Thu 06:47:27 PM 37.6186 -79.2650 North 237 273 11,900 1,230 Climbing Washington Center
Thu 06:48:28 PM 37.6833 -79.2631 North 237 273 13,100 1,008 Climbing Washington Center
Thu 06:49:26 PM 37.7606 -79.2642 359° North 263 303 13,900 508 Climbing Washington Center
Thu 06:50:26 PM 37.8419 -79.2628 North 275 316 14,100 99 Climbing Washington Center
Thu 06:51:27 PM 37.9253 -79.2617 North 286 329 14,100 443 Level Washington Center
Thu 06:52:28 PM 38.0067 -79.2631 359° North 291 335 15,000 1,881 Climbing Washington Center
Thu 06:53:25 PM 38.0839 -79.2589 North 267 307 17,800 2,136 Climbing Washington Center
Thu 06:54:26 PM 38.1486 -79.2594 360° North 244 281 19,200 1,525 Climbing Washington Center
Thu 06:55:27 PM 38.2131 -79.2597 360° North 234 269 20,900 1,623 Climbing Washington Center
Thu 06:56:28 PM 38.2717 -79.2575 North 234 269 22,500 1,513 Climbing Washington Center
Thu 06:57:26 PM 38.3383 -79.2553 North 234 269 23,900 1,475 Climbing Washington Center
Thu 06:58:26 PM 38.4072 -79.2589 358° North 234 269 25,400 1,438 Climbing Washington Center
Thu 06:59:27 PM 38.4761 -79.2542 North 234 269 26,800 787 Climbing Washington Center
Thu 07:00:28 PM 38.5617 -79.2531 North 254 292 27,000 101 Climbing Washington Center
Thu 07:01:26 PM 38.6492 -79.2522 360° North 287 330 27,000  Level Washington Center
Thu 07:02:27 PM 38.7450 -79.2542 359° North 320 368 27,000  Level Washington Center
Thu 07:03:28 PM 38.8392 -79.2483 North 333 383 27,000  Level Washington Center
Thu 07:04:28 PM 38.9350 -79.2450 North 339 390 27,000  Level Washington Center
Thu 07:05:26 PM 39.0331 -79.2447 360° North 345 397 27,000  Level Washington Center
Thu 07:06:27 PM 39.1208 -79.2408 North 345 397 27,000  Level Washington Center
Thu 07:07:28 PM 39.2186 -79.2406 360° North 345 397 27,000  Level Washington Center
Thu 07:08:28 PM 39.3147 -79.2372 North 345 397 27,000  Level Washington Center
Thu 07:10:01 PM 39.4642 -79.2386 360° North 351 404 27,000  Level Cleveland Center
Thu 07:11:03 PM 39.5806 -79.2369 North 354 407 27,000  Level Cleveland Center
Thu 07:12:05 PM 39.6781 -79.2342 North 354 407 27,000  Level Cleveland Center
Thu 07:13:07 PM 39.7739 -79.2325 North 349 402 27,000  Level Cleveland Center
Thu 07:14:09 PM 39.8703 -79.2311 North 348 400 27,000  Level Cleveland Center
Thu 07:15:11 PM 39.9672 -79.2281 North 350 403 27,000  Level Cleveland Center
Thu 07:16:13 PM 40.0753 -79.2267 North 349 402 27,000  Level Cleveland Center
Thu 07:17:15 PM 40.1719 -79.2250 North 350 403 27,000  Level Cleveland Center
Thu 07:18:17 PM 40.2678 -79.2225 North 347 399 27,000  Level Cleveland Center
Thu 07:19:19 PM 40.3642 -79.2208 North 347 399 27,000  Level Cleveland Center
Thu 07:20:21 PM 40.4811 -79.2189 North 350 403 27,000  Level Cleveland Center
Thu 07:21:23 PM 40.5781 -79.2178 360° North 351 404 27,000  Level Cleveland Center
Thu 07:22:24 PM 40.6808 -79.2164 North 346 398 27,000  Level Cleveland Center
Thu 07:23:26 PM 40.7781 -79.2139 North 350 403 27,000  Level Cleveland Center
Thu 07:24:28 PM 40.8756 -79.2119 North 351 404 27,000  Level Cleveland Center
Thu 07:25:30 PM 40.9733 -79.2103 North 352 405 27,000  Level Cleveland Center
Thu 07:26:32 PM 41.0708 -79.2086 North 351 404 27,000  Level Cleveland Center
Thu 07:27:34 PM 41.1819 -79.2064 North 352 405 27,000  Level Cleveland Center
Thu 07:28:36 PM 41.2800 -79.2078 359° North 353 406 27,000  Level Cleveland Center
Thu 07:29:37 PM 41.3781 -79.2036 North 352 405 27,000  Level Cleveland Center
Thu 07:30:39 PM 41.4767 -79.2017 North 355 409 27,000  Level Cleveland Center
Thu 07:31:41 PM 41.5736 -79.2006 360° North 350 403 27,000  Level Cleveland Center
Thu 07:32:43 PM 41.6903 -79.1978 North 354 407 27,000 -339 Level Cleveland Center
Thu 07:33:45 PM 41.7892 -79.1967 360° North 355 409 26,300 -968 Descending Cleveland Center
Thu 07:34:47 PM 41.8919 -79.1944 North 367 422 25,000 -1,258 Descending Cleveland Center
Thu 07:35:49 PM 41.9889 -79.1919 North 351 404 23,700 -1,258 Descending Cleveland Center
Thu 07:36:51 PM 42.0814 -79.1908 North 336 387 22,400 -1,366 Descending Cleveland Center
Thu 07:37:52 PM 42.1739 -79.1894 North 333 383 20,900 -1,902 Descending Cleveland Center
Thu 07:38:54 PM 42.2892 -79.1869 North 347 399 18,500 -2,177 Descending Cleveland Center
Thu 07:39:56 PM 42.3808 -79.1856 North 332 382 16,400 -2,565 Descending Cleveland Center
Thu 07:40:58 PM 42.4736 -79.1839 North 324 373 13,200 -2,613 Descending Cleveland Center
Thu 07:42:00 PM 42.5608 -79.1814 North 313 360 11,000 -1,355 Descending Cleveland Center
Thu 07:43:02 PM 42.6442 -79.1803 North 303 349 10,400 -1,113 Descending Cleveland Center
Thu 07:44:04 PM 42.7342 -79.1789 North 289 333 8,700 -1,839 Descending Cleveland Center
Thu 07:45:06 PM 42.8139 -79.1775 North 278 320 6,600 -2,032 Descending Cleveland Center
Thu 07:46:08 PM 42.8922 -79.1761 North 271 312 4,500 -1,258 Descending Cleveland Center
Thu 07:47:10 PM 42.9633 -79.1742 North 250 288 4,000 -484 Descending Cleveland Center
Thu 07:48:12 PM 43.0122 -79.1750 359° North 194 223 3,500 -871 Descending Cleveland Center
Thu 07:49:14 PM 43.0564 -79.1831 352° North 160 184 2,200 -823 Descending Cleveland Center
Thu 07:50:16 PM 43.1000 -79.1983 346° North 157 181 1,800 -290 Descending Cleveland Center
Thu 07:51:18 PM 43.1447 -79.2197 341° North 162 186 1,600 -484 Descending Cleveland Center
Thu 07:52:20 PM 43.1756 -79.2017 23° Northeast 131 151 800 -591 Descending Cleveland Center
Thu 07:53:30 PM 43.1833 -79.1333 81° East 120 138 300 -429 Descending Toronto Center

Login

Don't have an account? Register now (free) for customized features, flight alerts, and more!